createdAt,value
2023-02-28T00:01:29.836Z,37.20
2023-02-28T00:03:57.511Z,105.47
2023-02-28T00:06:25.181Z,134.88
2023-02-28T00:08:52.789Z,103.00
2023-02-28T00:11:23.602Z,42.15
2023-02-28T00:13:51.017Z,31.75
2023-02-28T00:16:23.655Z,30.13
2023-02-28T00:18:53.715Z,25.40
2023-02-28T00:21:21.913Z,29.00
2023-02-28T00:23:49.758Z,35.30
2023-02-28T00:26:21.663Z,34.53
2023-02-28T00:28:49.445Z,80.25
2023-02-28T00:31:16.512Z,73.53
2023-02-28T00:33:43.882Z,42.13
2023-02-28T00:36:14.657Z,39.03
2023-02-28T00:38:42.152Z,41.47
2023-02-28T00:41:09.743Z,42.40
2023-02-28T00:43:38.735Z,43.17
2023-02-28T00:46:08.955Z,46.88
2023-02-28T00:48:41.045Z,40.38
2023-02-28T00:51:10.395Z,39.97
2023-02-28T00:53:37.827Z,36.03
2023-02-28T00:56:09.725Z,39.85
2023-02-28T00:58:37.243Z,40.10
2023-02-28T01:01:06.805Z,39.00
2023-02-28T01:03:36.695Z,38.83
2023-02-28T01:06:03.841Z,38.92
2023-02-28T01:08:33.752Z,43.05
2023-02-28T01:11:12.148Z,38.00
2023-02-28T01:13:42.560Z,35.78
2023-02-28T01:16:09.738Z,41.92
2023-02-28T01:18:38.121Z,38.85
2023-02-28T01:21:13.062Z,39.42
2023-02-28T01:23:41.305Z,39.35
2023-02-28T01:26:22.531Z,42.55
2023-02-28T01:28:51.836Z,37.45
2023-02-28T01:31:19.909Z,40.17
2023-02-28T01:33:47.462Z,39.90
2023-02-28T01:36:25.551Z,40.78
2023-02-28T01:38:53.541Z,38.85
2023-02-28T01:41:28.549Z,44.80
2023-02-28T01:44:00.733Z,42.28
2023-02-28T01:46:31.429Z,37.00
2023-02-28T01:49:18.721Z,40.30
2023-02-28T01:51:49.900Z,41.67
2023-02-28T01:54:36.139Z,38.30
2023-02-28T01:57:08.363Z,36.95
2023-02-28T01:59:54.550Z,44.75
2023-02-28T02:02:24.067Z,46.05
2023-02-28T02:05:03.713Z,42.78
2023-02-28T02:07:34.336Z,45.47
2023-02-28T02:10:07.254Z,44.50
2023-02-28T02:13:05.734Z,43.90
2023-02-28T02:15:35.935Z,47.33
2023-02-28T02:18:24.634Z,48.50
2023-02-28T02:21:25.495Z,53.28
2023-02-28T02:24:26.530Z,52.58
2023-02-28T02:27:22.334Z,44.72
2023-02-28T02:30:27.602Z,48.25
2023-02-28T02:33:09.736Z,46.42
2023-02-28T02:35:58.177Z,44.30
2023-02-28T02:38:46.296Z,47.58
2023-02-28T02:41:39.340Z,50.05
2023-02-28T02:44:39.106Z,51.20
2023-02-28T02:47:17.035Z,44.95
2023-02-28T02:49:58.351Z,51.65
2023-02-28T02:52:35.146Z,48.20
2023-02-28T02:55:04.524Z,52.00
2023-02-28T02:57:37.772Z,52.03
2023-02-28T03:00:09.576Z,49.58
2023-02-28T03:02:41.386Z,54.72
2023-02-28T03:05:26.360Z,50.30
2023-02-28T03:07:55.650Z,51.17
2023-02-28T03:10:35.931Z,47.72
2023-02-28T03:13:37.139Z,46.20
2023-02-28T03:16:37.058Z,44.78
2023-02-28T03:19:10.990Z,46.50
2023-02-28T03:22:02.965Z,43.92
2023-02-28T03:24:44.206Z,45.22
2023-02-28T03:27:40.237Z,46.25
2023-02-28T03:30:11.392Z,44.97
2023-02-28T03:32:55.555Z,42.78
2023-02-28T03:35:31.586Z,41.88
2023-02-28T03:38:09.585Z,45.30
2023-02-28T03:40:43.451Z,43.63
2023-02-28T03:43:19.262Z,44.20
2023-02-28T03:45:48.017Z,45.38
2023-02-28T03:48:21.877Z,47.80
2023-02-28T03:50:58.385Z,42.80
2023-02-28T03:53:31.983Z,45.05
2023-02-28T03:56:18.644Z,44.28
2023-02-28T03:59:15.752Z,47.53
2023-02-28T04:01:47.718Z,50.15
2023-02-28T04:04:19.061Z,48.45
2023-02-28T04:06:46.575Z,46.55
2023-02-28T04:09:15.658Z,43.08
2023-02-28T04:11:51.200Z,48.05
2023-02-28T04:14:20.904Z,42.45
2023-02-28T04:16:50.467Z,42.05
2023-02-28T04:19:18.373Z,40.65
2023-02-28T04:21:48.613Z,45.03
2023-02-28T04:24:28.039Z,40.50
2023-02-28T04:26:59.300Z,43.50
2023-02-28T04:29:31.608Z,43.83
2023-02-28T04:32:02.610Z,43.45
2023-02-28T04:34:31.863Z,43.65
2023-02-28T04:37:17.220Z,44.50
2023-02-28T04:39:47.276Z,46.83
2023-02-28T04:42:16.681Z,39.83
2023-02-28T04:44:44.222Z,40.67
2023-02-28T04:47:13.598Z,43.67
2023-02-28T04:49:41.029Z,38.45
2023-02-28T04:52:10.598Z,42.05
2023-02-28T04:54:38.091Z,45.03
2023-02-28T04:57:05.392Z,33.40
2023-02-28T04:59:35.125Z,35.72
2023-02-28T05:02:02.185Z,41.47
2023-02-28T05:04:29.617Z,40.83
2023-02-28T05:06:56.715Z,37.47
2023-02-28T05:09:24.037Z,36.00
2023-02-28T05:11:51.139Z,36.83
2023-02-28T05:14:23.513Z,42.50
2023-02-28T05:16:50.631Z,39.78
2023-02-28T05:19:21.070Z,40.88
2023-02-28T05:21:54.363Z,40.97
2023-02-28T05:24:22.075Z,38.65
2023-02-28T05:26:49.975Z,40.40
2023-02-28T05:29:19.462Z,42.13
2023-02-28T05:31:49.226Z,41.45
2023-02-28T05:34:16.889Z,42.83
2023-02-28T05:36:44.507Z,42.30
2023-02-28T05:39:14.489Z,44.25
2023-02-28T05:41:45.124Z,47.80
2023-02-28T05:44:12.564Z,69.57
2023-02-28T05:46:41.964Z,71.45
2023-02-28T05:49:09.463Z,74.90
2023-02-28T05:51:39.200Z,63.63
2023-02-28T05:54:07.224Z,54.20
2023-02-28T05:56:34.348Z,60.03
2023-02-28T05:59:02.001Z,54.25
2023-02-28T06:01:37.228Z,48.28
2023-02-28T06:04:06.865Z,45.05
2023-02-28T06:06:36.731Z,43.33
2023-02-28T06:09:07.849Z,50.10
2023-02-28T06:11:35.160Z,51.13
2023-02-28T06:14:03.465Z,49.58
2023-02-28T06:16:35.443Z,45.78
2023-02-28T06:19:07.649Z,43.60
2023-02-28T06:21:34.722Z,43.40
2023-02-28T06:24:02.320Z,44.67
2023-02-28T06:26:29.630Z,42.70
2023-02-28T06:28:57.119Z,44.33
2023-02-28T06:31:24.408Z,37.35
2023-02-28T06:33:52.008Z,39.03
2023-02-28T06:36:19.453Z,40.45
2023-02-28T06:38:49.274Z,39.45
2023-02-28T06:41:16.417Z,40.53
2023-02-28T06:43:44.227Z,35.60
2023-02-28T06:46:14.127Z,36.72
2023-02-28T06:48:45.110Z,37.25
2023-02-28T06:51:15.727Z,34.83
2023-02-28T06:53:43.502Z,37.92
2023-02-28T06:56:13.429Z,36.08
2023-02-28T06:58:46.634Z,36.50
2023-02-28T07:01:15.187Z,37.83
2023-02-28T07:03:42.757Z,34.97
2023-02-28T07:06:09.850Z,34.55
2023-02-28T07:08:40.314Z,29.67
2023-02-28T07:11:07.409Z,29.48
2023-02-28T07:13:37.363Z,27.80
2023-02-28T07:16:07.214Z,28.10
2023-02-28T07:18:38.124Z,28.42
2023-02-28T07:21:11.882Z,26.95
2023-02-28T07:23:40.171Z,28.45
2023-02-28T07:26:12.372Z,26.98
2023-02-28T07:28:39.911Z,25.58
2023-02-28T07:31:08.338Z,22.30
2023-02-28T07:33:38.607Z,26.40
2023-02-28T07:36:09.299Z,27.63
2023-02-28T07:38:38.127Z,44.50
2023-02-28T07:41:05.528Z,29.20
2023-02-28T07:43:33.802Z,18.83
2023-02-28T07:46:12.771Z,14.88
2023-02-28T07:48:40.202Z,14.40
2023-02-28T07:51:09.546Z,14.77
2023-02-28T07:53:37.032Z,10.48
2023-02-28T07:56:04.864Z,11.50
2023-02-28T07:58:34.710Z,11.35
2023-02-28T08:01:09.638Z,12.40
2023-02-28T08:03:40.447Z,10.20
2023-02-28T08:06:16.031Z,13.15
2023-02-28T08:08:43.406Z,12.55
2023-02-28T08:11:13.061Z,12.70
2023-02-28T08:13:43.414Z,11.15
2023-02-28T08:16:11.244Z,12.95
2023-02-28T08:18:38.771Z,10.57
2023-02-28T08:21:09.714Z,11.70
2023-02-28T08:23:37.383Z,11.43
2023-02-28T08:26:04.880Z,11.15
2023-02-28T08:28:35.059Z,11.43
2023-02-28T08:31:02.291Z,11.18
2023-02-28T08:33:29.737Z,10.52
2023-02-28T08:35:57.537Z,9.93
2023-02-28T08:38:25.476Z,9.43
2023-02-28T08:41:03.672Z,10.48
2023-02-28T08:43:34.121Z,9.48
2023-02-28T08:46:01.298Z,11.07
2023-02-28T08:48:30.902Z,8.88
2023-02-28T08:51:07.214Z,9.20
2023-02-28T08:53:41.178Z,8.75
2023-02-28T08:56:10.788Z,9.55
2023-02-28T08:58:40.984Z,11.00
2023-02-28T09:01:12.118Z,10.63
2023-02-28T09:03:40.511Z,10.80
2023-02-28T09:06:07.849Z,10.80
2023-02-28T09:08:38.070Z,10.45
2023-02-28T09:11:06.494Z,11.70
2023-02-28T09:13:34.342Z,10.35
2023-02-28T09:16:03.401Z,11.75
2023-02-28T09:18:34.695Z,9.80
2023-02-28T09:21:08.387Z,9.70
2023-02-28T09:23:36.283Z,10.18
2023-02-28T09:26:06.392Z,9.73
2023-02-28T09:28:33.838Z,9.70
2023-02-28T09:31:03.274Z,8.98
2023-02-28T09:33:30.707Z,11.75
2023-02-28T09:36:04.323Z,10.25
2023-02-28T09:38:34.076Z,10.95
2023-02-28T09:41:12.507Z,9.07
2023-02-28T09:43:47.659Z,8.52
2023-02-28T09:46:44.345Z,9.93
2023-02-28T09:49:22.472Z,10.60
2023-02-28T09:52:17.656Z,9.32
2023-02-28T09:54:47.759Z,9.60
2023-02-28T09:57:38.919Z,9.35
2023-02-28T10:00:09.452Z,7.90
2023-02-28T10:03:05.107Z,9.73
2023-02-28T10:05:32.777Z,9.55
2023-02-28T10:08:14.974Z,10.30
2023-02-28T10:10:43.656Z,10.48
2023-02-28T10:13:35.916Z,11.02
2023-02-28T10:16:16.764Z,8.85
2023-02-28T10:19:04.800Z,9.77
2023-02-28T10:21:42.108Z,11.20
2023-02-28T10:24:19.810Z,10.13
2023-02-28T10:26:49.482Z,10.38
2023-02-28T10:29:16.849Z,11.13
2023-02-28T10:31:44.349Z,9.30
2023-02-28T10:34:14.468Z,10.18
2023-02-28T10:36:44.623Z,10.40
2023-02-28T10:39:42.241Z,9.68
2023-02-28T10:42:29.696Z,9.77
2023-02-28T10:45:17.584Z,10.10
2023-02-28T10:48:01.794Z,10.15
2023-02-28T10:50:49.754Z,10.90
2023-02-28T10:53:31.112Z,8.90
2023-02-28T10:56:10.800Z,9.38
2023-02-28T10:58:58.016Z,11.18
2023-02-28T11:01:46.262Z,11.88
2023-02-28T11:04:21.144Z,12.45
2023-02-28T11:06:49.937Z,10.27
2023-02-28T11:09:42.299Z,9.13
2023-02-28T11:12:23.670Z,11.02
2023-02-28T11:15:06.936Z,10.37
2023-02-28T11:17:34.732Z,10.30
2023-02-28T11:20:19.503Z,12.15
2023-02-28T11:22:48.000Z,11.65
2023-02-28T11:25:28.159Z,9.85
2023-02-28T11:28:00.386Z,10.13
2023-02-28T11:30:54.228Z,15.43
2023-02-28T11:33:42.361Z,11.48
2023-02-28T11:36:21.470Z,11.13
2023-02-28T11:38:49.552Z,11.32
2023-02-28T11:41:23.037Z,11.90
2023-02-28T11:44:06.682Z,11.15
2023-02-28T11:46:53.355Z,10.35
2023-02-28T11:49:35.480Z,11.02
2023-02-28T11:52:26.064Z,11.70
2023-02-28T11:54:53.152Z,15.05
2023-02-28T11:58:11.173Z,14.23
2023-02-28T12:00:47.740Z,13.95
2023-02-28T12:03:39.980Z,14.02
2023-02-28T12:06:18.998Z,15.02
2023-02-28T12:09:03.061Z,13.48
2023-02-28T12:11:37.785Z,13.82
2023-02-28T12:14:26.608Z,17.73
2023-02-28T12:16:53.654Z,18.00
2023-02-28T12:19:44.775Z,17.70
2023-02-28T12:22:32.848Z,19.15
2023-02-28T12:25:22.231Z,17.70
2023-02-28T12:27:51.897Z,15.80
2023-02-28T12:30:26.887Z,16.73
2023-02-28T12:33:17.168Z,15.35
2023-02-28T12:36:00.299Z,19.30
2023-02-28T12:38:51.020Z,16.75
2023-02-28T12:41:28.541Z,16.02
2023-02-28T12:44:29.458Z,15.68
2023-02-28T12:47:02.300Z,17.25
2023-02-28T12:49:35.165Z,30.63
2023-02-28T12:52:10.466Z,23.52
2023-02-28T12:54:37.545Z,19.17
2023-02-28T12:57:19.519Z,17.75
2023-02-28T13:00:01.752Z,17.55
2023-02-28T13:03:00.598Z,16.20
2023-02-28T13:05:47.213Z,17.17
2023-02-28T13:08:35.487Z,18.70
2023-02-28T13:11:05.563Z,18.45
2023-02-28T13:13:35.484Z,18.10
2023-02-28T13:16:09.840Z,19.08
2023-02-28T13:18:44.879Z,19.98
2023-02-28T13:21:31.757Z,20.10
2023-02-28T13:24:04.969Z,18.15
2023-02-28T13:26:32.050Z,19.90
2023-02-28T13:29:05.855Z,20.17
2023-02-28T13:31:32.962Z,22.00
2023-02-28T13:34:07.180Z,16.13
2023-02-28T13:39:22.584Z,19.52
2023-02-28T13:41:49.753Z,17.27
2023-02-28T13:44:23.818Z,27.77
2023-02-28T13:46:50.937Z,18.88
2023-02-28T13:49:29.549Z,18.95
2023-02-28T13:52:09.244Z,20.27
2023-02-28T13:54:46.069Z,18.10
2023-02-28T13:57:31.329Z,19.13
2023-02-28T14:00:09.921Z,21.40
2023-02-28T14:02:58.358Z,22.15
2023-02-28T14:05:26.641Z,25.15
2023-02-28T14:08:22.570Z,20.33
2023-02-28T14:11:06.333Z,21.10
2023-02-28T14:13:39.453Z,178.27
2023-02-28T14:16:10.397Z,25.33
2023-02-28T14:18:41.305Z,23.60
2023-02-28T14:21:08.653Z,22.02
2023-02-28T14:23:47.801Z,24.08
2023-02-28T14:26:45.513Z,27.20
2023-02-28T14:29:31.090Z,23.13
2023-02-28T14:32:18.091Z,23.98
2023-02-28T14:34:47.965Z,22.25
2023-02-28T14:37:21.450Z,22.20
2023-02-28T14:39:49.382Z,24.33
2023-02-28T14:42:37.230Z,24.98
2023-02-28T14:45:05.253Z,25.63
2023-02-28T14:47:34.621Z,23.17
2023-02-28T14:50:08.499Z,22.88
2023-02-28T14:52:36.169Z,22.08
2023-02-28T14:55:13.112Z,23.55
2023-02-28T14:58:02.052Z,25.88
2023-02-28T15:00:36.593Z,23.83
2023-02-28T15:03:23.276Z,22.13
2023-02-28T15:05:58.627Z,26.23
2023-02-28T15:08:27.276Z,24.42
2023-02-28T15:11:02.285Z,22.95
2023-02-28T15:13:51.022Z,26.58
2023-02-28T15:16:20.332Z,24.38
2023-02-28T15:18:57.590Z,27.02
2023-02-28T15:21:36.928Z,27.38
2023-02-28T15:24:31.339Z,27.08
2023-02-28T15:27:05.809Z,26.48
2023-02-28T15:29:46.431Z,26.20
2023-02-28T15:32:40.073Z,27.88
2023-02-28T15:35:25.380Z,35.90
2023-02-28T15:38:23.304Z,33.50
2023-02-28T15:40:54.730Z,28.02
2023-02-28T15:43:29.139Z,25.85
2023-02-28T15:46:03.599Z,30.60
2023-02-28T15:48:34.032Z,28.30
2023-02-28T15:51:12.500Z,28.98
2023-02-28T15:53:46.858Z,28.55
2023-02-28T15:56:23.308Z,25.15
2023-02-28T15:58:50.694Z,30.73
2023-02-28T16:01:25.116Z,28.08
2023-02-28T16:03:58.360Z,28.13
2023-02-28T16:06:45.182Z,33.63
2023-02-28T16:09:17.009Z,28.58
2023-02-28T16:11:50.720Z,28.70
2023-02-28T16:14:21.717Z,28.45
2023-02-28T16:16:51.966Z,26.92
2023-02-28T16:19:19.749Z,26.10
2023-02-28T16:21:47.498Z,30.17
2023-02-28T16:24:15.012Z,24.42
2023-02-28T16:26:46.526Z,27.20
2023-02-28T16:29:27.998Z,28.75
2023-02-28T16:31:58.116Z,26.30
2023-02-28T16:34:25.689Z,26.85
2023-02-28T16:36:54.187Z,27.75
2023-02-28T16:39:21.505Z,26.65
2023-02-28T16:41:52.585Z,27.15
2023-02-28T16:44:32.445Z,26.80
2023-02-28T16:47:04.797Z,27.38
2023-02-28T16:49:34.543Z,32.20
2023-02-28T16:52:04.262Z,27.33
2023-02-28T16:54:31.387Z,28.88
2023-02-28T16:56:58.731Z,31.45
2023-02-28T16:59:28.406Z,30.27
2023-02-28T17:01:56.984Z,30.15
2023-02-28T17:04:24.989Z,31.60
2023-02-28T17:06:54.684Z,31.63
2023-02-28T17:09:59.668Z,29.55
2023-02-28T17:12:35.908Z,30.60
2023-02-28T17:15:03.096Z,32.88
2023-02-28T17:17:33.726Z,32.72
2023-02-28T17:20:17.341Z,31.25
2023-02-28T17:22:47.177Z,49.95
2023-02-28T17:25:16.585Z,94.47
2023-02-28T17:27:46.855Z,51.45
2023-02-28T17:30:18.611Z,37.83
2023-02-28T17:32:46.033Z,34.30
2023-02-28T17:35:14.238Z,33.05
2023-02-28T17:37:42.400Z,29.42
2023-02-28T17:40:15.897Z,29.70
2023-02-28T17:42:44.165Z,33.15
2023-02-28T17:45:14.523Z,37.72
2023-02-28T17:47:44.772Z,34.95
2023-02-28T17:50:18.035Z,36.58
2023-02-28T17:52:50.961Z,39.25
2023-02-28T17:55:18.080Z,54.08
2023-02-28T17:57:45.731Z,60.20
2023-02-28T18:00:15.172Z,63.15
2023-02-28T18:02:45.140Z,61.95
2023-02-28T18:05:12.326Z,66.28
2023-02-28T18:07:42.283Z,78.88
2023-02-28T18:10:20.427Z,87.97
2023-02-28T18:12:52.072Z,109.78
2023-02-28T18:15:22.545Z,94.72
2023-02-28T18:17:50.500Z,76.60
2023-02-28T18:20:24.606Z,80.35
2023-02-28T18:22:52.011Z,87.70
2023-02-28T18:25:19.112Z,66.63
2023-02-28T18:27:46.690Z,77.55
2023-02-28T18:30:16.199Z,60.00
2023-02-28T18:32:43.637Z,58.33
2023-02-28T18:35:10.730Z,53.38
2023-02-28T18:37:40.549Z,51.63
2023-02-28T18:40:10.623Z,50.47
2023-02-28T18:42:40.247Z,46.90
2023-02-28T18:45:08.058Z,45.13
2023-02-28T18:47:35.754Z,46.10
2023-02-28T18:50:02.789Z,48.08
2023-02-28T18:52:30.211Z,50.45
2023-02-28T18:54:59.571Z,49.92
2023-02-28T18:57:26.912Z,51.35
2023-02-28T18:59:56.458Z,45.20
2023-02-28T19:02:27.430Z,47.22
2023-02-28T19:04:56.920Z,56.15
2023-02-28T19:07:24.317Z,47.15
2023-02-28T19:09:51.446Z,46.85
2023-02-28T19:12:18.845Z,49.25
2023-02-28T19:14:48.580Z,44.33
2023-02-28T19:17:20.936Z,48.08
2023-02-28T19:19:48.047Z,98.32
2023-02-28T19:22:15.475Z,70.40
2023-02-28T19:24:45.033Z,98.35
2023-02-28T19:27:14.847Z,56.95
2023-02-28T19:29:42.042Z,46.65
2023-02-28T19:32:09.694Z,49.60
2023-02-28T19:34:36.963Z,49.58
2023-02-28T19:37:04.339Z,52.08
2023-02-28T19:39:31.515Z,75.50
2023-02-28T19:41:58.995Z,74.63
2023-02-28T19:44:28.624Z,58.50
2023-02-28T19:46:58.465Z,60.83
2023-02-28T19:49:27.992Z,52.58
2023-02-28T19:51:55.426Z,51.60
2023-02-28T19:54:22.576Z,51.55
2023-02-28T19:56:50.163Z,60.50
2023-02-28T19:59:21.957Z,63.03
2023-02-28T20:01:58.605Z,62.60
2023-02-28T20:04:27.176Z,61.33
2023-02-28T20:06:56.958Z,60.38
2023-02-28T20:09:24.396Z,59.83
2023-02-28T20:11:52.578Z,62.33
2023-02-28T20:14:20.021Z,53.53
2023-02-28T20:16:47.777Z,52.17
2023-02-28T20:19:17.550Z,48.92
2023-02-28T20:21:45.287Z,54.17
2023-02-28T20:24:14.844Z,52.90
2023-02-28T20:26:42.190Z,53.78
2023-02-28T20:29:12.186Z,51.28
2023-02-28T20:31:41.971Z,48.20
2023-02-28T20:34:11.537Z,50.38
2023-02-28T20:36:38.974Z,51.90
2023-02-28T20:39:06.413Z,52.65
2023-02-28T20:41:34.225Z,55.40
2023-02-28T20:44:02.528Z,57.67
2023-02-28T20:46:33.148Z,55.13
2023-02-28T20:49:00.563Z,55.72
2023-02-28T20:51:28.084Z,59.55
2023-02-28T20:53:57.985Z,55.03
2023-02-28T20:56:25.446Z,59.35
2023-02-28T20:58:55.291Z,53.50
2023-02-28T21:01:25.492Z,53.50
2023-02-28T21:03:54.165Z,55.63
2023-02-28T21:06:23.839Z,62.17
2023-02-28T21:08:51.240Z,63.70
2023-02-28T21:11:27.046Z,76.10
2023-02-28T21:13:55.792Z,82.25
2023-02-28T21:16:25.574Z,62.00
2023-02-28T21:18:53.389Z,59.60
2023-02-28T21:21:24.827Z,49.08
2023-02-28T21:23:52.225Z,51.40
2023-02-28T21:26:24.111Z,50.58
2023-02-28T21:28:56.628Z,59.53
2023-02-28T21:31:33.402Z,53.90
2023-02-28T21:34:02.581Z,64.40
2023-02-28T21:36:32.242Z,63.75
2023-02-28T21:39:05.987Z,73.32
2023-02-28T21:44:00.832Z,77.20
2023-02-28T21:46:29.973Z,98.78
2023-02-28T21:49:00.137Z,108.90
2023-02-28T21:51:30.223Z,119.35
2023-02-28T21:54:00.638Z,118.50
2023-02-28T21:56:33.123Z,114.38
2023-02-28T21:59:01.147Z,98.35
2023-02-28T22:01:34.804Z,84.47
2023-02-28T22:04:06.567Z,59.38
2023-02-28T22:06:39.010Z,66.20
2023-02-28T22:09:08.950Z,99.65
2023-02-28T22:11:37.640Z,73.00
2023-02-28T22:14:05.825Z,63.92
2023-02-28T22:16:49.527Z,70.18
2023-02-28T22:19:17.803Z,82.65
2023-02-28T22:21:47.617Z,81.85
2023-02-28T22:24:15.161Z,82.93
2023-02-28T22:26:42.538Z,94.88
2023-02-28T22:29:10.485Z,115.05
2023-02-28T22:31:37.894Z,138.52
2023-02-28T22:34:11.859Z,159.45
2023-02-28T22:36:42.058Z,191.73
2023-02-28T22:39:10.396Z,175.25
2023-02-28T22:41:38.163Z,183.45
2023-02-28T22:44:06.177Z,163.50
2023-02-28T22:46:36.906Z,152.20
2023-02-28T22:49:05.444Z,156.98
2023-02-28T22:51:36.503Z,165.88
2023-02-28T22:54:03.792Z,200.48
2023-02-28T22:56:31.722Z,207.95
2023-02-28T22:59:02.155Z,250.88
2023-02-28T23:01:32.425Z,237.68
2023-02-28T23:04:01.892Z,250.57
2023-02-28T23:06:38.221Z,253.55
2023-02-28T23:09:10.748Z,291.75
2023-02-28T23:11:46.292Z,241.82
2023-02-28T23:14:14.779Z,213.93
2023-02-28T23:16:47.174Z,220.02
2023-02-28T23:19:15.866Z,203.23
2023-02-28T23:21:44.534Z,219.00
2023-02-28T23:24:13.238Z,213.65
2023-02-28T23:26:43.948Z,214.43
2023-02-28T23:29:15.456Z,227.23
2023-02-28T23:31:45.462Z,221.40
2023-02-28T23:34:13.409Z,218.20
2023-02-28T23:36:41.438Z,215.20
2023-02-28T23:39:08.462Z,229.80
2023-02-28T23:41:36.048Z,226.35
2023-02-28T23:44:03.192Z,214.20
2023-02-28T23:46:35.009Z,210.35
2023-02-28T23:49:02.112Z,211.98
2023-02-28T23:51:31.906Z,206.52
2023-02-28T23:54:03.572Z,214.18
2023-02-28T23:56:31.213Z,204.63
2023-02-28T23:58:58.582Z,205.82
